Liversedge, United Kingdom
Current Conditions -  °F | °C
As of 12:20 AM on Monday 22 Dec 2014 (Local Time) from EGNM Reporting Station
Rain Showers Rain Showers  
Wind Chill: 54°   Ceiling: 1600
Heat Index: 54°   Visibility: 6mi
Dew Point: 48°   Wind: 22mph
Humidity: 82%   Direction: 240°WSW
Pressure: 29.8"   Gusts: 35mph
Location:  53.71°N, 1.68°W
Report Text: EGNM 220020Z 24019G30KT 210V270 9999 -SHRA BKN016 12/09 Q1009
Loading
Personal Weather Stations






























Interactive Weather Map New forecast layout! Learn more

10-Day Weather Forecast

Advertisements
Track Severe Weather on mobile